Time;durP1;ratioP1;P1;durP2;ratioP2;P2;SDS_P1;SDS_P2;PMS_P1;PMS_P2;Temp;Humidity;BMP_temperature;BMP_pressure;BME280_temperature;BME280_humidity;BME280_pressure;Samples;Min_cycle;Max_cycle;Signal;HPM_P1;HPM_P2
2022/05/25 00:02:05;;;;;;;;;;;;;;;22.48;68.32;96823.16;611001;232;66437;-76
2022/05/25 00:04:33;;;;;;;;;;;;;;;22.47;68.29;96826.93;610684;232;65360;-76
2022/05/25 00:07:01;;;;;;;;;;;;;;;22.47;68.30;96832.28;609206;233;66814;-76
2022/05/25 00:09:29;;;;;;;;;;;;;;;22.47;67.92;96824.25;609215;232;66850;-77
2022/05/25 00:11:56;;;;;;;;;;;;;;;22.47;68.44;96829.61;609194;233;65561;-76
2022/05/25 00:14:24;;;;;;;;;;;;;;;22.48;68.09;96828.52;609206;233;66801;-76
2022/05/25 00:16:51;;;;;;;;;;;;;;;22.47;68.55;96830.40;609238;233;66574;-76
2022/05/25 00:22:04;;;;;;;;;;;;;;;22.47;68.27;96826.93;609129;233;66658;-76
2022/05/25 00:24:32;;;;;;;;;;;;;;;22.47;67.83;96826.93;609223;233;66646;-77
2022/05/25 00:26:59;;;;;;;;;;;;;;;22.47;68.29;96824.25;609173;233;65122;-76
2022/05/25 00:29:27;;;;;;;;;;;;;;;22.47;68.20;96826.93;609169;233;67143;-76
2022/05/25 00:31:54;;;;;;;;;;;;;;;22.47;68.60;96822.37;609201;233;67198;-77
2022/05/25 00:34:22;;;;;;;;;;;;;;;22.47;68.25;96821.57;609164;233;65537;-76
2022/05/25 00:36:49;;;;;;;;;;;;;;;22.47;67.87;96822.37;609147;233;67139;-76
2022/05/25 00:39:17;;;;;;;;;;;;;;;22.46;68.12;96810.07;609172;233;66900;-77
2022/05/25 00:41:44;;;;;;;;;;;;;;;22.47;67.93;96816.22;609187;233;65098;-76
2022/05/25 00:44:11;;;;;;;;;;;;;;;22.47;68.44;96816.22;609203;233;67034;-77
2022/05/25 00:46:39;;;;;;;;;;;;;;;22.48;68.37;96820.48;609155;233;66970;-76
2022/05/25 00:49:23;;;;;;;;;;;;;;;22.47;67.50;96816.22;609186;233;65649;-76
2022/05/25 00:51:52;;;;;;;;;;;;;;;22.47;67.98;96816.22;609149;233;66725;-77
2022/05/25 00:54:21;;;;;;;;;;;;;;;22.47;67.95;96819.69;609129;232;64771;-77
2022/05/25 00:56:50;;;;;;;;;;;;;;;22.47;68.93;96814.33;609160;233;63987;-77
2022/05/25 00:59:19;;;;;;;;;;;;;;;22.47;67.93;96816.22;609215;233;65308;-77
2022/05/25 01:01:47;;;;;;;;;;;;;;;22.46;68.04;96820.78;609132;233;67170;-77
2022/05/25 01:04:15;;;;;;;;;;;;;;;22.47;68.09;96816.22;609190;232;65384;-77
2022/05/25 01:06:47;;;;;;;;;;;;;;;22.48;68.31;96817.80;610954;232;64889;-77
2022/05/25 01:09:34;;;;;;;;;;;;;;;22.46;68.16;96810.07;610958;232;66850;-77
2022/05/25 01:12:19;;;;;;;;;;;;;;;22.46;68.73;96818.11;610682;232;65088;-75
2022/05/25 01:14:51;;;;;;;;;;;;;;;22.46;68.13;96820.78;610903;232;67507;-77
2022/05/25 01:17:29;;;;;;;;;;;;;;;22.47;68.04;96816.22;610678;232;66540;-77
2022/05/25 01:20:04;;;;;;;;;;;;;;;22.46;68.17;96823.45;610852;232;65160;-76
2022/05/25 01:22:45;;;;;;;;;;;;;;;22.46;68.99;96828.02;610681;232;66469;-76
2022/05/25 01:25:20;;;;;;;;;;;;;;;22.46;69.10;96836.84;610337;232;68651;-76
2022/05/25 01:27:49;;;;;;;;;;;;;;;22.46;68.60;96833.38;610815;232;65405;-76
2022/05/25 01:30:20;;;;;;;;;;;;;;;22.45;68.10;96835.23;610726;232;66634;-76
2022/05/25 01:33:08;;;;;;;;;;;;;;;22.46;68.09;96838.73;610840;232;68507;-76
2022/05/25 01:35:56;;;;;;;;;;;;;;;22.44;68.23;96830.97;610647;232;62734;-76
2022/05/25 01:38:24;;;;;;;;;;;;;;;22.46;68.40;96836.05;610738;232;68686;-72
2022/05/25 01:41:05;;;;;;;;;;;;;;;22.44;68.85;96827.50;610812;232;68278;-72
2022/05/25 01:43:34;;;;;;;;;;;;;;;22.45;68.21;96834.44;610679;232;65465;-74
2022/05/25 01:46:08;;;;;;;;;;;;;;;22.45;68.26;96845.16;610648;232;73853;-74
2022/05/25 01:48:38;;;;;;;;;;;;;;;22.46;68.25;96836.05;610548;232;68795;-74
2022/05/25 01:51:09;;;;;;;;;;;;;;;22.45;69.00;96823.73;610926;232;62735;-74
2022/05/25 01:53:39;;;;;;;;;;;;;;;22.44;68.69;96828.30;610746;232;68820;-74
2022/05/25 01:56:08;;;;;;;;;;;;;;;22.44;68.60;96830.97;610876;232;68565;-75
2022/05/25 01:58:37;;;;;;;;;;;;;;;22.44;68.81;96828.30;610688;232;65102;-78
2022/05/25 02:01:06;;;;;;;;;;;;;;;22.44;68.98;96825.61;610606;232;68735;-77
2022/05/25 02:06:30;;;;;;;;;;;;;;;22.45;68.75;96831.77;608967;231;65276;-76
2022/05/25 02:09:11;;;;;;;;;;;;;;;22.45;68.09;96832.55;608455;233;68389;-77
2022/05/25 02:11:52;;;;;;;;;;;;;;;22.44;68.66;96833.65;608349;233;68398;-76
2022/05/25 02:14:27;;;;;;;;;;;;;;;22.44;68.98;96840.89;609912;232;65323;-76
2022/05/25 02:17:11;;;;;;;;;;;;;;;22.43;68.95;96831.27;610757;232;66710;-76
2022/05/25 02:19:40;;;;;;;;;;;;;;;22.44;68.72;96832.86;610744;232;68654;-76
2022/05/25 02:22:09;;;;;;;;;;;;;;;22.42;68.83;96835.80;610874;232;65327;-73
2022/05/25 02:24:45;;;;;;;;;;;;;;;22.43;68.19;96837.42;610038;232;68682;-73
2022/05/25 02:27:26;;;;;;;;;;;;;;;22.43;69.02;96839.30;610691;232;68489;-76
2022/05/25 02:29:55;;;;;;;;;;;;;;;22.43;68.90;96833.95;607749;232;65303;-76
2022/05/25 02:32:24;;;;;;;;;;;;;;;22.43;68.79;96841.98;610837;232;68616;-76
2022/05/25 02:34:53;;;;;;;;;;;;;;;22.44;69.12;96843.56;610732;232;68351;-76
2022/05/25 02:37:23;;;;;;;;;;;;;;;22.42;68.50;96840.37;610841;232;65396;-76
2022/05/25 02:39:51;;;;;;;;;;;;;;;22.42;68.81;96841.16;610766;232;68715;-76
2022/05/25 02:42:18;;;;;;;;;;;;;;;22.43;69.45;96850.02;610760;232;66439;-73
2022/05/25 02:44:46;;;;;;;;;;;;;;;22.44;68.37;96848.92;610690;232;62967;-73
2022/05/25 02:47:14;;;;;;;;;;;;;;;22.43;68.67;96847.34;610857;232;66371;-73
2022/05/25 02:49:41;;;;;;;;;;;;;;;22.43;68.88;96848.13;610713;232;66436;-73
2022/05/25 02:52:10;;;;;;;;;;;;;;;22.43;68.69;96842.77;610759;232;63209;-73
2022/05/25 02:54:38;;;;;;;;;;;;;;;22.43;68.98;96855.37;610931;232;68753;-73
2022/05/25 02:57:06;;;;;;;;;;;;;;;22.43;68.68;96852.69;610946;232;66308;-73
2022/05/25 02:59:33;;;;;;;;;;;;;;;22.43;68.83;96858.05;610647;232;63011;-76
2022/05/25 03:02:09;;;;;;;;;;;;;;;22.42;69.33;96862.58;610842;232;66269;-76
2022/05/25 03:04:34;;;;;;;;;;;;;;;22.42;68.70;96862.58;610140;232;68937;-76
2022/05/25 03:07:01;;;;;;;;;;;;;;;22.43;69.30;96868.76;608963;233;65142;-76
2022/05/25 03:09:29;;;;;;;;;;;;;;;22.43;69.97;96872.23;609000;233;68491;-76
2022/05/25 03:11:56;;;;;;;;;;;;;;;22.42;68.83;96878.65;608923;232;68565;-76
2022/05/25 03:14:24;;;;;;;;;;;;;;;22.42;69.05;96884.00;609046;233;65148;-76
2022/05/25 03:16:51;;;;;;;;;;;;;;;22.43;68.61;96880.27;608943;233;66546;-76
2022/05/25 03:19:19;;;;;;;;;;;;;;;22.43;69.49;96884.83;608928;232;66496;-76
2022/05/25 03:21:47;;;;;;;;;;;;;;;22.42;69.79;96896.59;608980;233;65649;-76
2022/05/25 03:24:15;;;;;;;;;;;;;;;22.42;69.37;96900.06;608928;232;68410;-77
2022/05/25 03:26:42;;;;;;;;;;;;;;;22.42;69.11;96900.06;608954;232;68476;-76
2022/05/25 03:29:11;;;;;;;;;;;;;;;22.41;69.74;96901.16;609009;233;65317;-76
2022/05/25 03:31:39;;;;;;;;;;;;;;;22.41;69.06;96903.84;608953;232;68959;-76
2022/05/25 03:34:06;;;;;;;;;;;;;;;22.40;69.09;96907.61;608934;232;68488;-76
2022/05/25 03:36:34;;;;;;;;;;;;;;;22.41;68.88;96908.40;608935;233;63053;-76
2022/05/25 03:39:01;;;;;;;;;;;;;;;22.42;69.10;96912.66;608993;232;66522;-76
2022/05/25 03:41:29;;;;;;;;;;;;;;;22.42;69.26;96918.81;609031;233;66604;-72
2022/05/25 03:43:57;;;;;;;;;;;;;;;22.41;69.93;96921.78;609002;233;62983;-73
2022/05/25 03:46:24;;;;;;;;;;;;;;;22.42;69.51;96918.02;608994;233;66621;-72
2022/05/25 03:48:52;;;;;;;;;;;;;;;22.41;68.26;96919.11;608986;232;66618;-72
2022/05/25 03:51:19;;;;;;;;;;;;;;;22.42;68.94;96910.78;608960;233;63020;-73
2022/05/25 03:53:49;;;;;;;;;;;;;;;22.41;68.61;96922.58;609009;232;66395;-72
2022/05/25 03:56:16;;;;;;;;;;;;;;;22.41;68.78;96919.91;608940;233;68894;-72
2022/05/25 03:58:44;;;;;;;;;;;;;;;22.41;69.45;96922.58;608956;233;65197;-72
2022/05/25 04:01:11;;;;;;;;;;;;;;;22.41;69.28;96921.78;609058;232;66489;-73
2022/05/25 04:03:39;;;;;;;;;;;;;;;22.41;69.55;96924.47;609014;233;66450;-72
2022/05/25 04:06:06;;;;;;;;;;;;;;;22.40;69.71;96926.35;609023;232;65349;-73
2022/05/25 04:08:34;;;;;;;;;;;;;;;22.39;69.16;96928.20;608986;233;69596;-72
2022/05/25 04:11:01;;;;;;;;;;;;;;;22.39;69.71;96927.41;609915;232;67935;-73
2022/05/25 04:13:29;;;;;;;;;;;;;;;22.40;69.71;96929.03;610588;232;62069;-73
2022/05/25 04:15:56;;;;;;;;;;;;;;;22.39;69.45;96927.41;610852;232;66229;-72
2022/05/25 04:18:24;;;;;;;;;;;;;;;22.39;69.02;96925.52;610720;232;67349;-73
2022/05/25 04:20:51;;;;;;;;;;;;;;;22.39;69.46;96927.41;610906;232;62987;-73
2022/05/25 04:23:20;;;;;;;;;;;;;;;22.39;69.73;96932.77;610928;232;68345;-73
2022/05/25 04:25:48;;;;;;;;;;;;;;;22.38;69.64;96926.62;610817;232;68274;-73
2022/05/25 04:28:15;;;;;;;;;;;;;;;22.39;69.45;96932.77;610847;232;63031;-72
2022/05/25 04:30:43;;;;;;;;;;;;;;;22.39;70.03;96935.44;610923;232;68332;-72
2022/05/25 04:33:10;;;;;;;;;;;;;;;22.38;69.11;96931.97;610890;232;66418;-73
2022/05/25 04:35:38;;;;;;;;;;;;;;;22.39;69.88;96932.77;610891;232;62929;-73
2022/05/25 04:38:06;;;;;;;;;;;;;;;22.38;70.06;96925.83;610622;232;68425;-73
2022/05/25 04:40:36;;;;;;;;;;;;;;;22.39;69.50;96927.41;610783;231;69381;-72
2022/05/25 04:43:05;;;;;;;;;;;;;;;22.39;70.34;96930.09;610844;232;65109;-73
2022/05/25 04:45:33;;;;;;;;;;;;;;;22.38;70.48;96918.59;610881;232;66714;-73
2022/05/25 04:48:02;;;;;;;;;;;;;;;22.38;70.23;96923.15;610829;232;68490;-73
2022/05/25 04:50:34;;;;;;;;;;;;;;;22.38;70.46;96931.97;610752;232;65101;-72
2022/05/25 04:53:02;;;;;;;;;;;;;;;22.37;69.43;96933.06;610613;232;68677;-73
2022/05/25 04:58:20;;;;;;;;;;;;;;;22.39;70.18;96933.56;610826;232;63108;-73
2022/05/25 05:00:47;;;;;;;;;;;;;;;22.38;70.06;96936.53;610925;232;68587;-73
2022/05/25 05:03:15;;;;;;;;;;;;;;;22.37;70.50;96933.06;610565;232;68620;-73
2022/05/25 05:05:42;;;;;;;;;;;;;;;22.37;70.67;96935.73;609560;230;62923;-72
2022/05/25 05:08:10;;;;;;;;;;;;;;;22.38;70.81;96937.33;609049;233;66494;-73
2022/05/25 05:10:37;;;;;;;;;;;;;;;22.38;70.75;96936.53;608967;233;68577;-73
2022/05/25 05:13:07;;;;;;;;;;;;;;;22.36;69.92;96942.16;609038;233;63153;-73
2022/05/25 05:15:35;;;;;;;;;;;;;;;22.37;70.30;96938.42;609046;233;68079;-73
2022/05/25 05:18:03;;;;;;;;;;;;;;;22.36;69.91;96939.48;608986;233;66472;-72
2022/05/25 05:20:48;;;;;;;;;;;;;;;22.36;69.84;96939.48;609127;233;39074;-72
2022/05/25 05:23:16;;;;;;;;;;;;;;;22.37;70.20;96945.63;609003;233;66516;-72
2022/05/25 05:25:43;;;;;;;;;;;;;;;22.36;69.51;96933.33;609025;233;66333;-72
2022/05/25 05:28:14;;;;;;;;;;;;;;;22.36;70.17;96931.45;609066;233;62999;-73
2022/05/25 05:30:43;;;;;;;;;;;;;;;22.36;69.94;96928.77;609015;233;69188;-73
2022/05/25 05:33:10;;;;;;;;;;;;;;;22.36;69.92;96923.41;608317;233;68932;-73
2022/05/25 05:35:38;;;;;;;;;;;;;;;22.36;70.01;96926.09;608999;233;65153;-72
2022/05/25 05:38:06;;;;;;;;;;;;;;;22.36;70.15;96918.06;609008;233;68829;-73
2022/05/25 05:40:33;;;;;;;;;;;;;;;22.36;69.81;96917.27;609048;233;68507;-72
2022/05/25 05:43:02;;;;;;;;;;;;;;;22.37;70.36;96921.53;609034;233;65129;-72
2022/05/25 05:45:31;;;;;;;;;;;;;;;22.35;70.55;96916.48;609004;233;68662;-72
2022/05/25 05:48:01;;;;;;;;;;;;;;;22.36;70.83;96927.98;609045;233;68556;-73
2022/05/25 05:50:30;;;;;;;;;;;;;;;22.36;70.07;96922.63;608977;233;65321;-72
2022/05/25 05:52:58;;;;;;;;;;;;;;;22.36;70.00;96917.27;609021;233;66269;-73
2022/05/25 05:55:25;;;;;;;;;;;;;;;22.37;70.50;96916.17;609054;233;68516;-73
2022/05/25 05:57:55;;;;;;;;;;;;;;;22.37;70.33;96918.85;608875;233;65221;-73
2022/05/25 06:00:22;;;;;;;;;;;;;;;22.36;69.99;96922.63;608894;233;66682;-74
2022/05/25 06:02:50;;;;;;;;;;;;;;;22.36;70.04;96918.06;608474;233;66546;-77
2022/05/25 06:05:17;;;;;;;;;;;;;;;22.36;69.72;96917.27;607151;233;65440;-72
2022/05/25 06:07:45;;;;;;;;;;;;;;;22.35;70.00;96915.69;608925;232;69902;-73
2022/05/25 06:10:12;;;;;;;;;;;;;;;22.34;69.48;96919.42;604024;232;68547;-74
2022/05/25 06:12:40;;;;;;;;;;;;;;;22.34;69.44;96914.89;600456;236;63170;-76
2022/05/25 06:20:42;;;;;;;;;;;;;;;22.38;69.08;96923.15;600602;236;63093;-74
2022/05/25 06:23:09;;;;;;;;;;;;;;;22.37;69.64;96927.70;600618;236;66456;-74
2022/05/25 06:25:36;;;;;;;;;;;;;;;22.38;69.30;96923.94;600668;236;66424;-73
2022/05/25 06:28:04;;;;;;;;;;;;;;;22.39;69.73;96927.41;600640;236;62855;-71
2022/05/25 06:30:31;;;;;;;;;;;;;;;22.38;70.08;96928.50;600575;236;67419;-73
2022/05/25 06:32:59;;;;;;;;;;;;;;;22.37;70.33;96925.03;600586;236;68356;-73
2022/05/25 06:35:26;;;;;;;;;;;;;;;22.39;69.94;96936.23;600655;236;63043;-73
2022/05/25 06:37:54;;;;;;;;;;;;;;;22.39;70.11;96930.88;600622;236;66540;-73
2022/05/25 06:40:21;;;;;;;;;;;;;;;22.41;69.09;96940.53;600627;236;66199;-75
2022/05/25 06:42:51;;;;;;;;;;;;;;;22.41;69.51;96941.33;600611;236;63151;-73
2022/05/25 06:45:18;;;;;;;;;;;;;;;22.42;69.05;96942.11;600542;236;66559;-77
2022/05/25 06:47:46;;;;;;;;;;;;;;;22.43;69.55;96943.73;600428;236;66843;-77
2022/05/25 06:50:13;;;;;;;;;;;;;;;22.42;69.24;96939.44;600670;236;62977;-77
2022/05/25 06:52:41;;;;;;;;;;;;;;;22.42;69.52;96942.11;600550;236;66484;-71
2022/05/25 06:55:08;;;;;;;;;;;;;;;22.42;69.61;96944.80;600609;236;66394;-73
2022/05/25 06:57:37;;;;;;;;;;;;;;;22.43;69.99;96951.77;600589;236;63230;-71
2022/05/25 07:00:05;;;;;;;;;;;;;;;22.43;68.17;96954.44;600521;236;68728;-72
2022/05/25 07:02:34;;;;;;;;;;;;;;;22.44;69.55;96939.96;600666;236;68665;-72
2022/05/25 07:05:02;;;;;;;;;;;;;;;22.43;69.76;96949.88;606549;230;63119;-72
2022/05/25 07:07:31;;;;;;;;;;;;;;;22.44;70.24;96950.67;615959;230;68041;-71
2022/05/25 07:09:58;;;;;;;;;;;;;;;22.44;70.52;96954.14;616200;230;66426;-72
2022/05/25 07:12:26;;;;;;;;;;;;;;;22.44;70.31;96950.67;616018;230;62933;-71
2022/05/25 07:14:53;;;;;;;;;;;;;;;22.44;69.70;96950.67;611200;230;72073;-73
2022/05/25 07:17:21;;;;;;;;;;;;;;;22.36;68.78;96938.69;616325;230;68619;-72
2022/05/25 07:19:48;;;;;;;;;;;;;;;22.45;69.99;96950.38;616156;230;65112;-72
2022/05/25 07:22:16;;;;;;;;;;;;;;;22.44;69.10;96948.79;616300;230;68780;-72
2022/05/25 07:24:43;;;;;;;;;;;;;;;22.45;70.41;96950.38;616275;230;66452;-73
2022/05/25 07:27:11;;;;;;;;;;;;;;;22.45;69.89;96953.05;615482;230;63153;-73
2022/05/25 07:29:38;;;;;;;;;;;;;;;22.45;70.33;96950.38;616385;230;68670;-73
2022/05/25 07:32:09;;;;;;;;;;;;;;;22.45;70.41;96957.62;616280;230;68521;-72
2022/05/25 07:34:38;;;;;;;;;;;;;;;22.46;70.71;96953.88;616088;230;65118;-73
2022/05/25 07:37:06;;;;;;;;;;;;;;;22.47;70.49;96955.46;616200;230;66406;-76
2022/05/25 07:39:36;;;;;;;;;;;;;;;22.47;70.29;96955.46;616267;230;66670;-76
2022/05/25 07:42:04;;;;;;;;;;;;;;;22.49;70.85;96950.63;616172;230;65107;-75
2022/05/25 07:44:39;;;;;;;;;;;;;;;22.48;70.44;96946.34;616194;230;68654;-72
2022/05/25 07:47:06;;;;;;;;;;;;;;;22.48;68.47;96954.38;616112;230;68496;-76
2022/05/25 07:49:34;;;;;;;;;;;;;;;22.50;70.98;96949.54;616109;230;65009;-75
2022/05/25 07:52:02;;;;;;;;;;;;;;;22.49;70.53;96951.42;615185;230;68590;-75
2022/05/25 07:54:30;;;;;;;;;;;;;;;22.49;70.55;96946.07;615708;230;66312;-73
2022/05/25 07:56:59;;;;;;;;;;;;;;;22.51;70.31;96949.27;616183;230;65201;-74
2022/05/25 07:59:27;;;;;;;;;;;;;;;22.52;70.26;96942.03;616190;230;68694;-73
2022/05/25 08:07:27;;;;;;;;;;;;;;;22.53;70.09;96943.61;616242;230;66552;-71
2022/05/25 08:09:56;;;;;;;;;;;;;;;22.54;70.67;96950.59;616206;230;66426;-71
2022/05/25 08:12:25;;;;;;;;;;;;;;;22.54;70.68;96953.27;616292;230;65956;-71
2022/05/25 08:14:52;;;;;;;;;;;;;;;22.55;70.69;96957.53;616243;230;68787;-70
2022/05/25 08:17:20;;;;;;;;;;;;;;;22.54;70.36;96962.09;616173;230;68296;-71
2022/05/25 08:19:47;;;;;;;;;;;;;;;22.55;70.72;96958.33;616221;230;65073;-71
2022/05/25 08:22:15;;;;;;;;;;;;;;;22.55;70.65;96963.68;616213;230;68243;-73
2022/05/25 08:24:43;;;;;;;;;;;;;;;22.56;70.83;96964.47;616100;230;68498;-73
2022/05/25 08:27:10;;;;;;;;;;;;;;;22.57;70.15;96960.73;616157;230;62992;-71
2022/05/25 08:29:38;;;;;;;;;;;;;;;22.57;69.80;96961.53;616277;230;68604;-71
2022/05/25 08:32:06;;;;;;;;;;;;;;;22.58;70.02;96968.47;616252;230;66198;-73
2022/05/25 08:34:34;;;;;;;;;;;;;;;22.59;70.59;96956.69;616315;230;63300;-72
2022/05/25 08:37:02;;;;;;;;;;;;;;;22.59;70.32;96954.02;616211;230;69002;-73
2022/05/25 08:39:29;;;;;;;;;;;;;;;22.60;70.08;96957.48;610465;230;69266;-73
2022/05/25 08:41:59;;;;;;;;;;;;;;;22.60;69.64;96958.28;611033;230;62939;-73
2022/05/25 08:44:27;;;;;;;;;;;;;;;22.62;70.49;96958.02;616151;230;68670;-73
2022/05/25 08:46:56;;;;;;;;;;;;;;;22.62;69.43;96968.72;616178;230;68692;-73
2022/05/25 08:49:25;;;;;;;;;;;;;;;22.64;68.80;96961.19;616277;230;65508;-73
2022/05/25 08:51:57;;;;;;;;;;;;;;;22.65;68.95;96957.44;615967;230;66464;-73
2022/05/25 08:54:26;;;;;;;;;;;;;;;22.65;69.20;96951.29;616131;230;68581;-73
2022/05/25 08:56:58;;;;;;;;;;;;;;;22.65;68.96;96957.44;615879;230;63055;-75
2022/05/25 08:59:27;;;;;;;;;;;;;;;22.67;69.36;96959.82;615358;230;66499;-75
2022/05/25 09:01:56;;;;;;;;;;;;;;;22.68;69.09;96962.23;616142;230;66432;-75
2022/05/25 09:04:26;;;;;;;;;;;;;;;22.68;69.98;96956.88;615662;230;65521;-77
2022/05/25 09:07:13;;;;;;;;;;;;;;;22.69;68.98;96958.45;612734;231;68650;-78
2022/05/25 09:09:45;;;;;;;;;;;;;;;22.70;69.47;96957.39;612978;231;66235;-79
2022/05/25 09:12:23;;;;;;;;;;;;;;;22.71;69.69;96958.19;609386;231;62994;-78
2022/05/25 09:14:52;;;;;;;;;;;;;;;22.70;69.19;96949.36;593140;238;68723;-76
2022/05/25 09:17:21;;;;;;;;;;;;;;;22.70;69.85;96949.36;593234;238;68950;-78
2022/05/25 09:19:50;;;;;;;;;;;;;;;22.73;69.81;96961.39;593071;238;65508;-78
2022/05/25 09:22:19;;;;;;;;;;;;;;;22.72;69.33;96955.20;598793;232;68909;-79
2022/05/25 09:24:48;;;;;;;;;;;;;;;22.74;69.50;96949.58;600260;232;68538;-76
2022/05/25 09:27:17;;;;;;;;;;;;;;;22.76;67.80;96944.75;606244;231;65452;-77
2022/05/25 09:29:44;;;;;;;;;;;;;;;22.77;68.34;96947.13;606550;230;66287;-75
2022/05/25 09:32:30;;;;;;;;;;;;;;;22.78;68.76;96946.06;609918;231;68546;-73
2022/05/25 09:35:17;;;;;;;;;;;;;;;22.78;68.40;96953.27;610375;232;63902;-74
2022/05/25 09:37:46;;;;;;;;;;;;;;;22.80;68.73;96959.16;610434;232;66043;-73
2022/05/25 09:40:21;;;;;;;;;;;;;;;22.79;68.77;96955.69;610377;230;66535;-73
2022/05/25 09:42:55;;;;;;;;;;;;;;;22.81;68.48;96956.20;609469;232;62994;-75
2022/05/25 09:45:23;;;;;;;;;;;;;;;22.81;68.88;96948.17;610451;229;68876;-73
2022/05/25 09:47:52;;;;;;;;;;;;;;;22.82;69.02;96941.72;610444;232;68524;-72
2022/05/25 09:50:36;;;;;;;;;;;;;;;22.83;68.82;96943.33;610454;232;65290;-73
2022/05/25 09:53:05;;;;;;;;;;;;;;;22.85;68.56;96948.39;610440;232;68606;-74
2022/05/25 09:55:37;;;;;;;;;;;;;;;22.86;68.53;96951.86;610416;232;68563;-74
2022/05/25 09:58:09;;;;;;;;;;;;;;;22.86;69.18;96946.50;610270;231;65510;-75
2022/05/25 10:00:39;;;;;;;;;;;;;;;22.86;68.79;96951.86;610392;229;66404;-73
2022/05/25 10:03:08;;;;;;;;;;;;;;;22.87;69.03;96959.63;610363;232;68370;-72
2022/05/25 10:05:39;;;;;;;;;;;;;;;22.88;69.42;96952.38;610666;232;65139;-75
2022/05/25 10:08:11;;;;;;;;;;;;;;;22.88;69.18;96963.89;609322;232;68728;-75
2022/05/25 10:10:56;;;;;;;;;;;;;;;22.89;68.94;96959.33;610998;232;66451;-74
2022/05/25 10:13:23;;;;;;;;;;;;;;;22.89;68.64;96956.65;610992;232;65612;-73
2022/05/25 10:15:53;;;;;;;;;;;;;;;22.90;69.01;96963.62;611020;232;68490;-73
2022/05/25 10:18:37;;;;;;;;;;;;;;;22.92;68.58;96967.62;605599;232;66408;-73
2022/05/25 10:21:07;;;;;;;;;;;;;;;22.94;68.64;96973.47;605702;232;68549;-74
2022/05/25 10:23:36;;;;;;;;;;;;;;;22.95;68.38;96971.61;611079;232;68858;-74
2022/05/25 10:26:15;;;;;;;;;;;;;;;22.95;68.48;96967.05;610922;232;66232;-74
2022/05/25 10:28:47;;;;;;;;;;;;;;;22.96;68.61;96973.23;610934;232;65379;-75
2022/05/25 10:36:47;;;;;;;;;;;;;;;22.97;68.82;96964.09;612029;228;65515;-75
2022/05/25 10:39:19;;;;;;;;;;;;;;;22.97;69.05;96956.88;611004;232;66465;-73
2022/05/25 10:42:04;;;;;;;;;;;;;;;22.98;69.13;96949.63;611106;232;67469;-75
2022/05/25 10:44:36;;;;;;;;;;;;;;;22.97;69.13;96956.88;611091;232;65393;-74
2022/05/25 10:47:03;;;;;;;;;;;;;;;22.99;69.17;96953.89;610851;232;69669;-73
2022/05/25 10:49:35;;;;;;;;;;;;;;;22.99;68.79;96962.73;611113;232;68581;-75
2022/05/25 10:52:11;;;;;;;;;;;;;;;22.99;69.01;96960.05;611115;232;65184;-74
2022/05/25 10:54:45;;;;;;;;;;;;;;;23.00;69.05;96958.98;611071;232;66129;-75
2022/05/25 10:57:27;;;;;;;;;;;;;;;22.99;68.92;96952.01;611102;232;68455;-74
2022/05/25 11:00:12;;;;;;;;;;;;;;;23.01;69.03;96938.34;611006;232;65326;-75
2022/05/25 11:02:54;;;;;;;;;;;;;;;23.01;68.91;96941.81;611032;232;69050;-74
2022/05/25 11:05:26;;;;;;;;;;;;;;;23.02;68.87;96940.72;609300;232;66478;-76
2022/05/25 11:07:55;;;;;;;;;;;;;;;23.03;68.80;96930.81;607395;233;65313;-73
2022/05/25 11:10:24;;;;;;;;;;;;;;;23.05;67.92;96931.30;607767;233;66467;-75
2022/05/25 11:12:53;;;;;;;;;;;;;;;23.07;67.73;96942.55;605873;233;68599;-74
2022/05/25 11:15:28;;;;;;;;;;;;;;;23.07;68.66;96926.47;604144;234;63115;-74
2022/05/25 11:18:10;;;;;;;;;;;;;;;23.07;69.37;96925.67;604141;234;68698;-74
2022/05/25 11:20:56;;;;;;;;;;;;;;;23.06;69.00;96924.88;604180;234;66440;-73
2022/05/25 11:23:25;;;;;;;;;;;;;;;23.07;68.95;96931.03;604152;234;65542;-75
2022/05/25 11:26:03;;;;;;;;;;;;;;;23.08;67.37;96925.40;604050;233;68673;-74
2022/05/25 11:28:35;;;;;;;;;;;;;;;23.11;67.35;96929.36;604078;233;66511;-73
2022/05/25 11:31:12;;;;;;;;;;;;;;;23.10;68.10;96928.56;604251;233;48259;-76
2022/05/25 11:33:54;;;;;;;;;;;;;;;23.10;68.62;96925.09;604307;234;67478;-74
2022/05/25 11:36:24;;;;;;;;;;;;;;;23.10;68.47;96923.20;599483;234;66331;-73
2022/05/25 11:38:56;;;;;;;;;;;;;;;23.10;68.13;96922.41;604189;234;63143;-76
2022/05/25 11:41:28;;;;;;;;;;;;;;;23.11;67.98;96924.00;604190;234;66384;-74
2022/05/25 11:43:59;;;;;;;;;;;;;;;23.11;68.16;96918.64;604241;232;49524;-76
2022/05/25 11:46:46;;;;;;;;;;;;;;;23.11;68.08;96930.19;604199;234;65394;-71
2022/05/25 11:49:24;;;;;;;;;;;;;;;23.13;68.18;96921.84;604268;234;68698;-75
2022/05/25 11:52:10;;;;;;;;;;;;;;;23.13;68.25;96921.84;604132;234;68855;-75
2022/05/25 11:54:55;;;;;;;;;;;;;;;23.14;68.73;96910.84;604239;234;65422;-74
2022/05/25 11:57:36;;;;;;;;;;;;;;;23.14;68.73;96910.84;604159;234;67443;-76
2022/05/25 12:00:08;;;;;;;;;;;;;;;23.14;68.34;96915.41;604196;234;68726;-75
2022/05/25 12:02:52;;;;;;;;;;;;;;;23.16;68.54;96914.05;603642;233;39046;-74
2022/05/25 12:05:21;;;;;;;;;;;;;;;23.16;68.35;96919.41;607906;232;66409;-74
2022/05/25 12:07:53;;;;;;;;;;;;;;;23.16;68.04;96918.58;611608;230;68634;-77
2022/05/25 12:10:22;;;;;;;;;;;;;;;23.18;68.02;96911.84;611705;232;65101;-73
2022/05/25 12:13:02;;;;;;;;;;;;;;;23.18;68.86;96906.48;611328;231;68377;-71
2022/05/25 12:15:34;;;;;;;;;;;;;;;23.18;68.61;96903.80;611566;230;68665;-70
2022/05/25 12:18:09;;;;;;;;;;;;;;;23.20;68.75;96898.97;610825;232;65218;-75
2022/05/25 12:20:41;;;;;;;;;;;;;;;23.21;68.80;96902.44;611600;232;66578;-73
2022/05/25 12:23:12;;;;;;;;;;;;;;;23.25;68.66;96906.16;611490;232;66538;-73
2022/05/25 12:25:42;;;;;;;;;;;;;;;23.24;68.71;96900.00;611618;230;65328;-75
2022/05/25 12:28:10;;;;;;;;;;;;;;;23.24;69.03;96902.68;611613;232;69173;-74
2022/05/25 12:30:39;;;;;;;;;;;;;;;23.24;68.82;96905.36;611619;232;68727;-75
2022/05/25 12:33:10;;;;;;;;;;;;;;;23.24;69.20;96905.36;611641;232;44902;-71
2022/05/25 12:35:40;;;;;;;;;;;;;;;23.25;68.77;96901.58;611605;231;68619;-72
2022/05/25 12:38:10;;;;;;;;;;;;;;;23.25;69.12;96890.86;611694;232;68527;-72
2022/05/25 12:40:41;;;;;;;;;;;;;;;23.24;69.10;96889.27;611628;232;63061;-73
2022/05/25 12:43:27;;;;;;;;;;;;;;;23.26;69.10;96894.33;611638;232;68925;-73
2022/05/25 12:48:41;;;;;;;;;;;;;;;23.27;69.00;96882.51;611570;232;66305;-73
2022/05/25 12:51:10;;;;;;;;;;;;;;;23.28;69.52;96878.77;611257;232;68293;-73
2022/05/25 12:53:42;;;;;;;;;;;;;;;23.28;69.35;96883.33;611601;232;68557;-73
2022/05/25 12:56:15;;;;;;;;;;;;;;;23.29;69.10;96884.91;611638;232;65169;-73
2022/05/25 12:58:44;;;;;;;;;;;;;;;23.29;69.25;96884.91;611491;232;66140;-73
2022/05/25 13:01:16;;;;;;;;;;;;;;;23.29;69.56;96893.75;611590;232;68502;-73
2022/05/25 13:03:48;;;;;;;;;;;;;;;23.30;69.50;96886.50;611618;232;63052;-72
2022/05/25 13:06:21;;;;;;;;;;;;;;;23.30;69.47;96887.32;609208;232;68711;-80
2022/05/25 13:08:50;;;;;;;;;;;;;;;23.31;69.62;96888.11;608472;233;68941;-73
2022/05/25 13:11:32;;;;;;;;;;;;;;;23.32;69.62;96884.33;608761;233;65290;-77
2022/05/25 13:14:01;;;;;;;;;;;;;;;23.31;69.58;96888.91;608858;233;68731;-76
2022/05/25 13:16:45;;;;;;;;;;;;;;;23.33;69.53;96891.31;608858;233;68615;-71
2022/05/25 13:19:17;;;;;;;;;;;;;;;23.35;69.27;96894.48;608901;233;62843;-71
2022/05/25 13:21:46;;;;;;;;;;;;;;;23.35;69.59;96889.11;608965;233;66419;-71
2022/05/25 13:24:21;;;;;;;;;;;;;;;23.36;69.84;96890.73;607180;233;66054;-71
2022/05/25 13:26:53;;;;;;;;;;;;;;;23.35;69.54;96881.07;608928;232;65222;-72
2022/05/25 13:29:38;;;;;;;;;;;;;;;23.36;69.44;96874.64;605064;232;68330;-70
2022/05/25 13:32:08;;;;;;;;;;;;;;;23.38;69.05;96875.13;602205;235;68555;-69
2022/05/25 13:34:35;;;;;;;;;;;;;;;23.38;69.38;96881.31;602689;234;63009;-70